createdAt,value
2022-12-23T00:01:12.877Z,55.60
2022-12-23T00:06:13.274Z,55.58
2022-12-23T00:11:14.205Z,54.92
2022-12-23T00:16:11.830Z,56.60
2022-12-23T00:21:12.649Z,54.28
2022-12-23T00:26:13.409Z,55.00
2022-12-23T00:31:10.098Z,52.92
2022-12-23T00:36:10.956Z,54.40
2022-12-23T00:41:29.890Z,54.90
2022-12-23T00:46:26.279Z,56.50
2022-12-23T00:51:22.594Z,54.63
2022-12-23T00:56:18.923Z,58.92
2022-12-23T01:01:33.778Z,59.72
2022-12-23T01:06:30.168Z,59.25
2022-12-23T01:11:26.417Z,63.95
2022-12-23T01:16:22.753Z,61.83
2022-12-23T01:21:18.953Z,62.45
2022-12-23T01:26:15.265Z,62.80
2022-12-23T01:31:11.640Z,64.53
2022-12-23T01:36:08.241Z,62.35
2022-12-23T01:41:04.694Z,67.32
2022-12-23T01:46:01.012Z,69.47
2022-12-23T01:51:03.198Z,69.30
2022-12-23T01:55:59.483Z,68.05
2022-12-23T02:01:15.918Z,71.75
2022-12-23T02:06:56.986Z,67.05
2022-12-23T02:12:11.933Z,72.47
2022-12-23T02:17:17.402Z,67.65
2022-12-23T02:22:24.412Z,67.55
2022-12-23T02:27:29.512Z,69.20
2022-12-23T02:32:46.103Z,69.80
2022-12-23T02:37:45.093Z,67.63
2022-12-23T02:42:50.664Z,68.82
2022-12-23T02:47:49.788Z,67.82
2022-12-23T02:52:47.532Z,71.50
2022-12-23T02:57:55.077Z,72.40
2022-12-23T03:02:51.525Z,72.28
2022-12-23T03:07:48.680Z,72.13
2022-12-23T03:12:52.928Z,72.25
2022-12-23T03:17:57.507Z,74.15
2022-12-23T03:23:00.932Z,74.35
2022-12-23T03:28:00.917Z,71.13
2022-12-23T03:33:01.692Z,75.68
2022-12-23T03:37:59.000Z,70.97
2022-12-23T03:42:57.452Z,75.18
2022-12-23T03:47:56.234Z,74.00
2022-12-23T03:52:57.682Z,74.97
2022-12-23T03:57:59.464Z,75.72
2022-12-23T04:03:04.240Z,75.73
2022-12-23T04:08:11.672Z,75.25
2022-12-23T04:13:08.202Z,76.30
2022-12-23T04:18:04.553Z,75.30
2022-12-23T04:23:00.745Z,72.07
2022-12-23T04:27:57.126Z,74.70
2022-12-23T04:32:53.416Z,78.15
2022-12-23T04:37:49.714Z,79.63
2022-12-23T04:42:45.952Z,77.25
2022-12-23T04:47:42.212Z,80.05
2022-12-23T04:52:38.455Z,78.85
2022-12-23T04:57:34.839Z,81.07
2022-12-23T05:02:31.189Z,86.65
2022-12-23T05:07:27.610Z,80.40
2022-12-23T05:12:23.840Z,86.85
2022-12-23T05:17:20.178Z,83.32
2022-12-23T05:22:16.698Z,81.68
2022-12-23T05:27:13.082Z,88.70
2022-12-23T05:32:09.448Z,84.50
2022-12-23T05:37:06.184Z,87.30
2022-12-23T05:42:02.378Z,89.18
2022-12-23T05:46:58.610Z,86.47
2022-12-23T05:51:54.857Z,89.22
2022-12-23T05:56:51.201Z,89.32
2022-12-23T06:01:48.579Z,82.90
2022-12-23T06:06:44.984Z,84.70
2022-12-23T06:11:41.221Z,84.65
2022-12-23T06:16:37.579Z,87.32
2022-12-23T06:21:33.797Z,87.53
2022-12-23T06:26:30.108Z,92.53
2022-12-23T06:31:26.396Z,88.85
2022-12-23T06:36:22.765Z,88.60
2022-12-23T06:41:19.034Z,86.80
2022-12-23T06:46:15.439Z,88.80
2022-12-23T06:51:12.731Z,86.85
2022-12-23T06:56:09.012Z,86.93
2022-12-23T07:01:05.357Z,82.20
2022-12-23T07:06:01.702Z,82.38
2022-12-23T07:10:59.422Z,84.47
2022-12-23T07:15:55.992Z,90.97
2022-12-23T07:20:52.359Z,89.82
2022-12-23T07:25:48.615Z,84.28
2022-12-23T07:30:44.859Z,83.60
2022-12-23T07:35:44.000Z,81.72
2022-12-23T07:40:40.340Z,83.00
2022-12-23T07:45:36.616Z,86.18
2022-12-23T07:50:32.877Z,85.55
2022-12-23T07:55:29.121Z,86.82
2022-12-23T08:00:25.475Z,83.95
2022-12-23T08:05:22.001Z,84.22
2022-12-23T08:10:18.335Z,85.28
2022-12-23T08:15:14.684Z,84.78
2022-12-23T08:20:11.268Z,89.53
2022-12-23T08:25:07.701Z,83.40
2022-12-23T08:30:04.245Z,83.40
2022-12-23T08:35:00.529Z,85.18
2022-12-23T08:39:56.779Z,80.95
2022-12-23T08:44:53.126Z,79.30
2022-12-23T08:49:49.343Z,82.25
2022-12-23T08:54:45.665Z,80.18
2022-12-23T08:59:41.983Z,76.25
2022-12-23T09:04:38.212Z,80.22
2022-12-23T09:09:34.474Z,83.88
2022-12-23T09:14:30.658Z,85.53
2022-12-23T09:19:26.855Z,80.60
2022-12-23T09:24:23.048Z,86.38
2022-12-23T09:29:19.368Z,84.43
2022-12-23T09:34:15.607Z,83.68
2022-12-23T09:39:12.535Z,85.18
2022-12-23T09:44:12.646Z,84.75
2022-12-23T09:49:11.256Z,88.05
2022-12-23T09:54:16.826Z,87.40
2022-12-23T09:59:18.715Z,85.75
2022-12-23T10:04:26.800Z,86.72
2022-12-23T10:09:23.068Z,82.70
2022-12-23T10:14:24.769Z,88.22
2022-12-23T10:19:41.852Z,91.10
2022-12-23T10:24:40.681Z,90.32
2022-12-23T10:29:36.924Z,85.60
2022-12-23T10:34:42.648Z,86.43
2022-12-23T10:39:47.711Z,88.25
2022-12-23T10:44:53.977Z,86.30
2022-12-23T10:50:08.243Z,85.25
2022-12-23T10:55:05.238Z,89.93
2022-12-23T11:00:01.564Z,85.63
2022-12-23T11:04:57.750Z,90.53
2022-12-23T11:10:05.038Z,88.50
2022-12-23T11:15:02.366Z,85.22
2022-12-23T11:20:10.913Z,84.47
2022-12-23T11:25:27.675Z,83.40
2022-12-23T11:30:24.036Z,83.20
2022-12-23T11:35:30.831Z,84.20
2022-12-23T11:40:29.216Z,84.50
2022-12-23T11:45:26.893Z,83.68
2022-12-23T11:50:28.408Z,79.45
2022-12-23T11:55:26.256Z,78.38
2022-12-23T12:00:28.830Z,83.70
2022-12-23T12:10:25.529Z,83.05
2022-12-23T12:15:27.036Z,84.78
2022-12-23T12:20:26.363Z,84.72
2022-12-23T12:25:24.183Z,80.53
2022-12-23T12:30:20.982Z,81.38
2022-12-23T12:35:21.815Z,79.30
2022-12-23T12:40:24.031Z,78.05
2022-12-23T12:45:24.091Z,75.75
2022-12-23T12:50:23.184Z,72.82
2022-12-23T12:55:22.961Z,68.88
2022-12-23T13:00:20.656Z,75.20
2022-12-23T13:05:35.067Z,72.18
2022-12-23T13:10:38.267Z,71.85
2022-12-23T13:15:41.344Z,71.75
2022-12-23T13:20:45.032Z,72.70
2022-12-23T13:25:42.980Z,74.70
2022-12-23T13:30:43.762Z,71.05
2022-12-23T13:36:05.289Z,73.53
2022-12-23T13:41:06.432Z,75.45
2022-12-23T13:46:03.768Z,80.50
2022-12-23T13:51:06.126Z,82.50
2022-12-23T13:56:14.245Z,80.53
2022-12-23T14:01:10.585Z,81.10
2022-12-23T14:06:25.056Z,80.93
2022-12-23T14:11:21.528Z,81.00
2022-12-23T14:16:23.283Z,80.00
2022-12-23T14:21:31.791Z,79.63
2022-12-23T14:26:39.539Z,81.75
2022-12-23T14:31:40.316Z,82.30
2022-12-23T14:36:36.609Z,80.45
2022-12-23T14:41:38.093Z,83.70
2022-12-23T14:46:34.353Z,79.57
2022-12-23T14:51:34.755Z,82.85
2022-12-23T14:56:40.316Z,79.65
2022-12-23T15:01:42.726Z,76.80
2022-12-23T15:06:42.915Z,77.57
2022-12-23T15:11:39.923Z,78.53
2022-12-23T15:16:37.732Z,77.72
2022-12-23T15:21:34.661Z,75.72
2022-12-23T15:26:32.537Z,77.20
2022-12-23T15:31:31.158Z,79.55
2022-12-23T15:36:35.349Z,78.90
2022-12-23T15:41:31.778Z,76.47
2022-12-23T15:46:30.400Z,79.97
2022-12-23T15:56:50.105Z,79.93
2022-12-23T16:01:46.427Z,81.13
2022-12-23T16:06:48.068Z,83.88
2022-12-23T16:11:56.630Z,84.27
2022-12-23T16:16:53.757Z,81.43
2022-12-23T16:21:50.014Z,83.82
2022-12-23T16:26:46.371Z,81.22
2022-12-23T16:31:49.837Z,78.10
2022-12-23T16:36:48.448Z,84.00
2022-12-23T16:41:44.907Z,81.10
2022-12-23T16:46:45.418Z,84.32
2022-12-23T16:51:42.124Z,84.18
2022-12-23T16:56:38.418Z,84.65
2022-12-23T17:01:38.744Z,85.32
2022-12-23T17:06:38.602Z,82.50
2022-12-23T17:11:35.335Z,83.40
2022-12-23T17:16:31.689Z,85.38
2022-12-23T17:21:36.689Z,88.28
2022-12-23T17:26:33.461Z,86.53
2022-12-23T17:31:29.868Z,84.75
2022-12-23T17:36:26.292Z,88.38
2022-12-23T17:41:29.353Z,88.40
2022-12-23T17:46:26.126Z,87.22
2022-12-23T17:51:23.090Z,84.95
2022-12-23T17:56:19.999Z,85.68
2022-12-23T18:01:36.700Z,86.53
2022-12-23T18:06:33.092Z,85.28
2022-12-23T18:11:33.402Z,84.00
2022-12-23T18:16:29.937Z,85.68
2022-12-23T18:21:27.329Z,88.00
2022-12-23T18:26:23.749Z,86.75
2022-12-23T18:31:21.589Z,86.25
2022-12-23T18:36:17.892Z,83.55
2022-12-23T18:41:14.410Z,86.65
2022-12-23T18:46:10.670Z,83.13
2022-12-23T18:51:07.033Z,83.53
2022-12-23T18:56:03.264Z,86.03
2022-12-23T19:00:59.549Z,86.93
2022-12-23T19:05:56.335Z,86.72
2022-12-23T19:10:53.615Z,83.00
2022-12-23T19:15:50.038Z,88.07
2022-12-23T19:20:46.775Z,84.63
2022-12-23T19:25:47.791Z,88.32
2022-12-23T19:30:50.921Z,88.10
2022-12-23T19:35:47.227Z,88.47
2022-12-23T19:40:43.460Z,87.68
2022-12-23T19:45:39.781Z,86.25
2022-12-23T19:50:36.021Z,87.15
2022-12-23T19:55:32.252Z,86.50
2022-12-23T20:00:28.483Z,87.53
2022-12-23T20:05:24.798Z,84.18
2022-12-23T20:10:21.001Z,85.72
2022-12-23T20:15:17.556Z,82.60
2022-12-23T20:20:13.766Z,80.20
2022-12-23T20:25:10.155Z,81.05
2022-12-23T20:30:06.787Z,82.03
2022-12-23T20:35:03.250Z,84.13
2022-12-23T20:39:59.496Z,84.68
2022-12-23T20:44:55.699Z,80.95
2022-12-23T20:49:51.956Z,81.72
2022-12-23T20:54:48.253Z,78.95
2022-12-23T20:59:44.492Z,73.10
2022-12-23T21:04:40.992Z,82.78
2022-12-23T21:09:37.223Z,80.55
2022-12-23T21:14:33.585Z,78.47
2022-12-23T21:19:30.025Z,80.82
2022-12-23T21:24:26.377Z,80.72
2022-12-23T21:29:22.614Z,83.57
2022-12-23T21:34:18.866Z,81.25
2022-12-23T21:39:16.123Z,80.00
2022-12-23T21:44:14.291Z,82.35
2022-12-23T21:49:10.566Z,84.60
2022-12-23T21:54:07.025Z,80.82
2022-12-23T21:59:07.381Z,85.10
2022-12-23T22:04:03.649Z,83.20
2022-12-23T22:08:59.836Z,85.53
2022-12-23T22:13:56.759Z,81.25
2022-12-23T22:18:53.344Z,86.60
2022-12-23T22:23:50.416Z,86.55
2022-12-23T22:28:46.761Z,87.55
2022-12-23T22:33:42.980Z,85.68
2022-12-23T22:38:39.456Z,83.53
2022-12-23T22:43:35.721Z,81.80
2022-12-23T22:48:32.164Z,82.07
2022-12-23T22:53:29.994Z,81.28
2022-12-23T22:58:27.124Z,74.00
2022-12-23T23:03:23.764Z,79.35
2022-12-23T23:08:20.087Z,78.85
2022-12-23T23:13:16.287Z,77.00
2022-12-23T23:18:12.523Z,77.75
2022-12-23T23:23:08.793Z,76.28
2022-12-23T23:28:05.416Z,77.75
2022-12-23T23:33:01.764Z,76.85
2022-12-23T23:37:57.977Z,76.65
2022-12-23T23:42:54.370Z,77.97
2022-12-23T23:47:50.695Z,79.28
2022-12-23T23:52:46.938Z,79.60
2022-12-23T23:57:43.227Z,75.10
